sensor_id;sensor_type;location;lat;lon;timestamp;temperature;humidity
30244;DHT22;61465;53.652;9.792;2022-08-25T00:01:42;20.80;65.50
30244;DHT22;61465;53.652;9.792;2022-08-25T00:04:11;20.80;66.00
30244;DHT22;61465;53.652;9.792;2022-08-25T00:06:39;20.80;66.20
30244;DHT22;61465;53.652;9.792;2022-08-25T00:09:06;20.80;66.40
30244;DHT22;61465;53.652;9.792;2022-08-25T00:11:34;20.80;66.50
30244;DHT22;61465;53.652;9.792;2022-08-25T00:14:02;20.80;66.70
30244;DHT22;61465;53.652;9.792;2022-08-25T00:16:29;20.80;66.90
30244;DHT22;61465;53.652;9.792;2022-08-25T00:19:00;20.70;67.00
30244;DHT22;61465;53.652;9.792;2022-08-25T00:21:26;20.80;67.20
30244;DHT22;61465;53.652;9.792;2022-08-25T00:23:52;20.70;67.30
30244;DHT22;61465;53.652;9.792;2022-08-25T00:26:19;20.70;67.40
30244;DHT22;61465;53.652;9.792;2022-08-25T00:28:45;20.70;67.60
30244;DHT22;61465;53.652;9.792;2022-08-25T00:31:12;20.70;67.70
30244;DHT22;61465;53.652;9.792;2022-08-25T00:33:39;20.70;68.00
30244;DHT22;61465;53.652;9.792;2022-08-25T00:36:05;20.70;68.20
30244;DHT22;61465;53.652;9.792;2022-08-25T00:38:30;20.60;68.20
30244;DHT22;61465;53.652;9.792;2022-08-25T00:40:56;20.70;68.40
30244;DHT22;61465;53.652;9.792;2022-08-25T00:46:08;20.60;68.50
30244;DHT22;61465;53.652;9.792;2022-08-25T00:48:34;20.70;68.90
30244;DHT22;61465;53.652;9.792;2022-08-25T00:51:01;20.70;69.20
30244;DHT22;61465;53.652;9.792;2022-08-25T00:53:28;20.60;69.10
30244;DHT22;61465;53.652;9.792;2022-08-25T00:55:54;20.60;69.40
30244;DHT22;61465;53.652;9.792;2022-08-25T00:58:23;20.60;69.40
30244;DHT22;61465;53.652;9.792;2022-08-25T01:00:54;20.60;69.40
30244;DHT22;61465;53.652;9.792;2022-08-25T01:03:23;20.60;69.60
30244;DHT22;61465;53.652;9.792;2022-08-25T01:05:49;20.60;69.90
30244;DHT22;61465;53.652;9.792;2022-08-25T01:08:16;20.60;70.00
30244;DHT22;61465;53.652;9.792;2022-08-25T01:10:46;20.60;70.00
30244;DHT22;61465;53.652;9.792;2022-08-25T01:13:31;20.60;70.20
30244;DHT22;61465;53.652;9.792;2022-08-25T01:15:58;20.50;69.90
30244;DHT22;61465;53.652;9.792;2022-08-25T01:18:25;20.60;70.40
30244;DHT22;61465;53.652;9.792;2022-08-25T01:20:52;20.50;70.50
30244;DHT22;61465;53.652;9.792;2022-08-25T01:23:19;20.50;70.70
30244;DHT22;61465;53.652;9.792;2022-08-25T01:25:51;20.50;70.80
30244;DHT22;61465;53.652;9.792;2022-08-25T01:28:19;20.50;70.60
30244;DHT22;61465;53.652;9.792;2022-08-25T01:30:45;20.50;71.00
30244;DHT22;61465;53.652;9.792;2022-08-25T01:33:11;20.40;71.10
30244;DHT22;61465;53.652;9.792;2022-08-25T01:35:38;20.40;71.10
30244;DHT22;61465;53.652;9.792;2022-08-25T01:38:05;20.40;71.30
30244;DHT22;61465;53.652;9.792;2022-08-25T01:40:31;20.40;71.40
30244;DHT22;61465;53.652;9.792;2022-08-25T01:45:33;20.40;71.60
30244;DHT22;61465;53.652;9.792;2022-08-25T01:47:59;20.40;71.80
30244;DHT22;61465;53.652;9.792;2022-08-25T01:50:25;20.30;69.10
30244;DHT22;61465;53.652;9.792;2022-08-25T01:53:11;20.30;71.80
30244;DHT22;61465;53.652;9.792;2022-08-25T01:55:38;20.30;71.60
30244;DHT22;61465;53.652;9.792;2022-08-25T01:58:17;20.20;71.90
30244;DHT22;61465;53.652;9.792;2022-08-25T02:00:47;20.20;69.40
30244;DHT22;61465;53.652;9.792;2022-08-25T02:03:14;20.20;72.00
30244;DHT22;61465;53.652;9.792;2022-08-25T02:05:39;20.20;72.40
30244;DHT22;61465;53.652;9.792;2022-08-25T02:08:05;20.20;72.30
30244;DHT22;61465;53.652;9.792;2022-08-25T02:10:32;20.20;72.40
30244;DHT22;61465;53.652;9.792;2022-08-25T02:12:57;20.10;72.50
30244;DHT22;61465;53.652;9.792;2022-08-25T02:15:23;20.10;72.60
30244;DHT22;61465;53.652;9.792;2022-08-25T02:17:49;20.10;72.70
30244;DHT22;61465;53.652;9.792;2022-08-25T02:20:15;20.10;72.80
30244;DHT22;61465;53.652;9.792;2022-08-25T02:22:40;20.10;72.80
30244;DHT22;61465;53.652;9.792;2022-08-25T02:25:06;20.10;73.00
30244;DHT22;61465;53.652;9.792;2022-08-25T02:27:32;20.00;73.00
30244;DHT22;61465;53.652;9.792;2022-08-25T02:29:57;20.00;73.20
30244;DHT22;61465;53.652;9.792;2022-08-25T02:32:23;20.00;73.30
30244;DHT22;61465;53.652;9.792;2022-08-25T02:34:48;20.00;73.40
30244;DHT22;61465;53.652;9.792;2022-08-25T02:37:14;19.90;73.50
30244;DHT22;61465;53.652;9.792;2022-08-25T02:39:40;19.90;73.50
30244;DHT22;61465;53.652;9.792;2022-08-25T02:42:05;19.90;73.60
30244;DHT22;61465;53.652;9.792;2022-08-25T02:44:31;19.80;73.70
30244;DHT22;61465;53.652;9.792;2022-08-25T02:46:57;19.90;73.90
30244;DHT22;61465;53.652;9.792;2022-08-25T02:49:22;19.90;74.00
30244;DHT22;61465;53.652;9.792;2022-08-25T02:51:48;19.80;74.10
30244;DHT22;61465;53.652;9.792;2022-08-25T02:54:14;19.80;74.20
30244;DHT22;61465;53.652;9.792;2022-08-25T02:56:40;19.80;74.40
30244;DHT22;61465;53.652;9.792;2022-08-25T02:59:07;19.80;74.50
30244;DHT22;61465;53.652;9.792;2022-08-25T03:01:32;19.70;74.60
30244;DHT22;61465;53.652;9.792;2022-08-25T03:03:59;19.70;74.70
30244;DHT22;61465;53.652;9.792;2022-08-25T03:06:26;19.70;74.70
30244;DHT22;61465;53.652;9.792;2022-08-25T03:08:52;19.70;74.90
30244;DHT22;61465;53.652;9.792;2022-08-25T03:11:18;19.70;74.90
30244;DHT22;61465;53.652;9.792;2022-08-25T03:13:44;19.60;74.90
30244;DHT22;61465;53.652;9.792;2022-08-25T03:16:10;19.60;75.00
30244;DHT22;61465;53.652;9.792;2022-08-25T03:18:36;19.50;75.00
30244;DHT22;61465;53.652;9.792;2022-08-25T03:21:02;19.50;75.10
30244;DHT22;61465;53.652;9.792;2022-08-25T03:23:28;19.50;75.30
30244;DHT22;61465;53.652;9.792;2022-08-25T03:25:54;19.50;75.30
30244;DHT22;61465;53.652;9.792;2022-08-25T03:28:39;19.40;75.30
30244;DHT22;61465;53.652;9.792;2022-08-25T03:31:06;19.40;75.50
30244;DHT22;61465;53.652;9.792;2022-08-25T03:33:33;19.40;75.60
30244;DHT22;61465;53.652;9.792;2022-08-25T03:35:59;19.30;75.70
30244;DHT22;61465;53.652;9.792;2022-08-25T03:38:26;19.30;75.80
30244;DHT22;61465;53.652;9.792;2022-08-25T03:40:52;19.30;75.90
30244;DHT22;61465;53.652;9.792;2022-08-25T03:43:18;19.30;76.10
30244;DHT22;61465;53.652;9.792;2022-08-25T03:45:45;19.20;76.10
30244;DHT22;61465;53.652;9.792;2022-08-25T03:48:12;19.20;76.10
30244;DHT22;61465;53.652;9.792;2022-08-25T03:50:46;19.20;76.40
30244;DHT22;61465;53.652;9.792;2022-08-25T03:53:12;19.20;76.30
30244;DHT22;61465;53.652;9.792;2022-08-25T03:55:38;19.20;76.50
30244;DHT22;61465;53.652;9.792;2022-08-25T03:58:04;19.20;76.50
30244;DHT22;61465;53.652;9.792;2022-08-25T04:00:30;19.10;76.60
30244;DHT22;61465;53.652;9.792;2022-08-25T04:02:55;19.10;76.70
30244;DHT22;61465;53.652;9.792;2022-08-25T04:05:21;19.00;76.70
30244;DHT22;61465;53.652;9.792;2022-08-25T04:07:47;19.00;76.80
30244;DHT22;61465;53.652;9.792;2022-08-25T04:10:12;19.00;76.90
30244;DHT22;61465;53.652;9.792;2022-08-25T04:12:38;19.00;77.10
30244;DHT22;61465;53.652;9.792;2022-08-25T04:15:05;18.90;77.10
30244;DHT22;61465;53.652;9.792;2022-08-25T04:17:31;18.90;77.30
30244;DHT22;61465;53.652;9.792;2022-08-25T04:19:57;18.90;77.50
30244;DHT22;61465;53.652;9.792;2022-08-25T04:22:23;18.80;77.60
30244;DHT22;61465;53.652;9.792;2022-08-25T04:24:49;18.80;77.70
30244;DHT22;61465;53.652;9.792;2022-08-25T04:27:14;18.80;77.80
30244;DHT22;61465;53.652;9.792;2022-08-25T04:29:40;18.80;77.90
30244;DHT22;61465;53.652;9.792;2022-08-25T04:32:06;18.80;78.10
30244;DHT22;61465;53.652;9.792;2022-08-25T04:34:32;18.80;78.20
30244;DHT22;61465;53.652;9.792;2022-08-25T04:37:03;18.80;78.30
30244;DHT22;61465;53.652;9.792;2022-08-25T04:39:30;18.80;78.40
30244;DHT22;61465;53.652;9.792;2022-08-25T04:41:56;18.80;78.70
30244;DHT22;61465;53.652;9.792;2022-08-25T04:44:22;18.80;78.60
30244;DHT22;61465;53.652;9.792;2022-08-25T04:46:47;18.80;78.70
30244;DHT22;61465;53.652;9.792;2022-08-25T04:49:14;18.80;78.90
30244;DHT22;61465;53.652;9.792;2022-08-25T04:51:40;18.80;79.00
30244;DHT22;61465;53.652;9.792;2022-08-25T04:54:08;18.80;79.20
30244;DHT22;61465;53.652;9.792;2022-08-25T04:56:34;18.80;76.90
30244;DHT22;61465;53.652;9.792;2022-08-25T04:59:04;18.80;79.20
30244;DHT22;61465;53.652;9.792;2022-08-25T05:01:31;18.80;79.40
30244;DHT22;61465;53.652;9.792;2022-08-25T05:04:00;18.80;79.70
30244;DHT22;61465;53.652;9.792;2022-08-25T05:06:27;18.80;79.80
30244;DHT22;61465;53.652;9.792;2022-08-25T05:08:53;18.80;80.00
30244;DHT22;61465;53.652;9.792;2022-08-25T05:11:19;18.90;80.10
30244;DHT22;61465;53.652;9.792;2022-08-25T05:13:46;18.90;80.10
30244;DHT22;61465;53.652;9.792;2022-08-25T05:16:13;18.90;80.20
30244;DHT22;61465;53.652;9.792;2022-08-25T05:18:39;18.90;80.40
30244;DHT22;61465;53.652;9.792;2022-08-25T05:21:11;19.00;80.50
30244;DHT22;61465;53.652;9.792;2022-08-25T05:23:37;19.00;80.60
30244;DHT22;61465;53.652;9.792;2022-08-25T05:26:09;19.00;80.90
30244;DHT22;61465;53.652;9.792;2022-08-25T05:28:36;19.00;81.00
30244;DHT22;61465;53.652;9.792;2022-08-25T05:31:03;19.00;81.20
30244;DHT22;61465;53.652;9.792;2022-08-25T05:33:29;19.00;81.20
30244;DHT22;61465;53.652;9.792;2022-08-25T05:35:55;19.00;81.30
30244;DHT22;61465;53.652;9.792;2022-08-25T05:38:21;19.10;81.50
30244;DHT22;61465;53.652;9.792;2022-08-25T05:40:50;19.10;81.60
30244;DHT22;61465;53.652;9.792;2022-08-25T05:43:16;19.10;81.70
30244;DHT22;61465;53.652;9.792;2022-08-25T05:45:41;19.10;81.90
30244;DHT22;61465;53.652;9.792;2022-08-25T05:48:07;19.20;82.00
30244;DHT22;61465;53.652;9.792;2022-08-25T05:50:33;19.20;82.10
30244;DHT22;61465;53.652;9.792;2022-08-25T05:52:58;19.20;82.20
30244;DHT22;61465;53.652;9.792;2022-08-25T05:55:24;19.30;82.40
30244;DHT22;61465;53.652;9.792;2022-08-25T05:57:49;19.20;82.50
30244;DHT22;61465;53.652;9.792;2022-08-25T06:00:17;19.30;82.60
30244;DHT22;61465;53.652;9.792;2022-08-25T06:02:43;19.30;82.80
30244;DHT22;61465;53.652;9.792;2022-08-25T06:05:19;19.40;83.00
30244;DHT22;61465;53.652;9.792;2022-08-25T06:07:47;19.40;83.20
30244;DHT22;61465;53.652;9.792;2022-08-25T06:10:13;19.50;83.30
30244;DHT22;61465;53.652;9.792;2022-08-25T06:12:41;19.50;83.40
30244;DHT22;61465;53.652;9.792;2022-08-25T06:15:10;19.50;83.40
30244;DHT22;61465;53.652;9.792;2022-08-25T06:17:36;19.60;83.70
30244;DHT22;61465;53.652;9.792;2022-08-25T06:20:07;19.60;83.70
30244;DHT22;61465;53.652;9.792;2022-08-25T06:22:33;19.60;83.80
30244;DHT22;61465;53.652;9.792;2022-08-25T06:24:59;19.70;83.80
30244;DHT22;61465;53.652;9.792;2022-08-25T06:27:24;19.70;83.70
30244;DHT22;61465;53.652;9.792;2022-08-25T06:29:50;19.70;83.40
30244;DHT22;61465;53.652;9.792;2022-08-25T06:32:16;19.80;83.60
30244;DHT22;61465;53.652;9.792;2022-08-25T06:34:41;19.80;83.70
30244;DHT22;61465;53.652;9.792;2022-08-25T06:37:07;19.80;83.80
30244;DHT22;61465;53.652;9.792;2022-08-25T06:39:32;19.80;83.50
30244;DHT22;61465;53.652;9.792;2022-08-25T06:41:58;19.80;83.70
30244;DHT22;61465;53.652;9.792;2022-08-25T06:44:24;19.90;84.50
30244;DHT22;61465;53.652;9.792;2022-08-25T06:46:51;20.00;84.20
30244;DHT22;61465;53.652;9.792;2022-08-25T06:49:17;20.00;84.40
30244;DHT22;61465;53.652;9.792;2022-08-25T06:51:43;20.10;84.80
30244;DHT22;61465;53.652;9.792;2022-08-25T06:54:09;20.20;84.40
30244;DHT22;61465;53.652;9.792;2022-08-25T06:56:36;20.30;84.50
30244;DHT22;61465;53.652;9.792;2022-08-25T06:59:03;20.30;84.50
30244;DHT22;61465;53.652;9.792;2022-08-25T07:01:29;20.50;84.40
30244;DHT22;61465;53.652;9.792;2022-08-25T07:03:58;20.50;84.60
30244;DHT22;61465;53.652;9.792;2022-08-25T07:06:27;20.60;84.90
30244;DHT22;61465;53.652;9.792;2022-08-25T07:08:53;20.60;85.00
30244;DHT22;61465;53.652;9.792;2022-08-25T07:11:19;20.70;84.90
30244;DHT22;61465;53.652;9.792;2022-08-25T07:13:46;20.80;84.70
30244;DHT22;61465;53.652;9.792;2022-08-25T07:16:12;20.80;84.80
30244;DHT22;61465;53.652;9.792;2022-08-25T07:18:42;20.80;83.40
30244;DHT22;61465;53.652;9.792;2022-08-25T07:21:08;20.80;84.80
30244;DHT22;61465;53.652;9.792;2022-08-25T07:23:35;20.90;85.10
30244;DHT22;61465;53.652;9.792;2022-08-25T07:26:19;20.90;84.90
30244;DHT22;61465;53.652;9.792;2022-08-25T07:28:45;21.00;84.80
30244;DHT22;61465;53.652;9.792;2022-08-25T07:31:10;21.00;85.20
30244;DHT22;61465;53.652;9.792;2022-08-25T07:33:36;21.10;85.30
30244;DHT22;61465;53.652;9.792;2022-08-25T07:36:03;21.20;85.30
30244;DHT22;61465;53.652;9.792;2022-08-25T07:38:29;21.20;85.00
30244;DHT22;61465;53.652;9.792;2022-08-25T07:41:04;21.20;83.70
30244;DHT22;61465;53.652;9.792;2022-08-25T07:43:32;21.30;85.10
30244;DHT22;61465;53.652;9.792;2022-08-25T07:45:58;21.30;85.20
30244;DHT22;61465;53.652;9.792;2022-08-25T07:48:24;21.40;85.60
30244;DHT22;61465;53.652;9.792;2022-08-25T07:50:50;21.50;85.70
30244;DHT22;61465;53.652;9.792;2022-08-25T07:53:16;21.60;85.60
30244;DHT22;61465;53.652;9.792;2022-08-25T07:55:41;21.70;85.80
30244;DHT22;61465;53.652;9.792;2022-08-25T07:58:09;21.80;85.90
30244;DHT22;61465;53.652;9.792;2022-08-25T08:00:35;22.00;85.90
30244;DHT22;61465;53.652;9.792;2022-08-25T08:03:06;22.00;85.90
30244;DHT22;61465;53.652;9.792;2022-08-25T08:05:32;22.10;85.80
30244;DHT22;61465;53.652;9.792;2022-08-25T08:07:58;22.20;86.00
30244;DHT22;61465;53.652;9.792;2022-08-25T08:10:25;22.40;86.20
30244;DHT22;61465;53.652;9.792;2022-08-25T08:12:51;22.50;86.10
30244;DHT22;61465;53.652;9.792;2022-08-25T08:15:17;22.60;85.20
30244;DHT22;61465;53.652;9.792;2022-08-25T08:17:44;22.60;85.40
30244;DHT22;61465;53.652;9.792;2022-08-25T08:20:10;22.60;84.50
30244;DHT22;61465;53.652;9.792;2022-08-25T08:22:39;22.60;84.90
30244;DHT22;61465;53.652;9.792;2022-08-25T08:25:06;22.60;85.40
30244;DHT22;61465;53.652;9.792;2022-08-25T08:27:32;22.60;85.00
30244;DHT22;61465;53.652;9.792;2022-08-25T08:29:57;22.50;83.90
30244;DHT22;61465;53.652;9.792;2022-08-25T08:32:23;22.50;85.00
30244;DHT22;61465;53.652;9.792;2022-08-25T08:34:48;22.40;85.00
30244;DHT22;61465;53.652;9.792;2022-08-25T08:37:14;22.40;85.10
30244;DHT22;61465;53.652;9.792;2022-08-25T08:39:40;22.50;85.50
30244;DHT22;61465;53.652;9.792;2022-08-25T08:45:24;22.50;85.40
30244;DHT22;61465;53.652;9.792;2022-08-25T08:48:17;22.60;85.40
30244;DHT22;61465;53.652;9.792;2022-08-25T08:53:48;22.70;85.10
30244;DHT22;61465;53.652;9.792;2022-08-25T08:56:19;22.60;84.80
30244;DHT22;61465;53.652;9.792;2022-08-25T08:58:51;22.60;84.70
30244;DHT22;61465;53.652;9.792;2022-08-25T09:01:31;22.60;84.70
30244;DHT22;61465;53.652;9.792;2022-08-25T09:04:13;22.60;84.80
30244;DHT22;61465;53.652;9.792;2022-08-25T09:06:45;22.70;85.10
30244;DHT22;61465;53.652;9.792;2022-08-25T09:09:15;22.60;84.90
30244;DHT22;61465;53.652;9.792;2022-08-25T09:14:53;22.60;84.80
30244;DHT22;61465;53.652;9.792;2022-08-25T09:22:56;22.60;85.10
30244;DHT22;61465;53.652;9.792;2022-08-25T09:25:44;22.50;84.80
30244;DHT22;61465;53.652;9.792;2022-08-25T09:31:04;22.50;85.10
30244;DHT22;61465;53.652;9.792;2022-08-25T09:33:34;22.50;85.10
30244;DHT22;61465;53.652;9.792;2022-08-25T09:35:59;22.60;85.70
30244;DHT22;61465;53.652;9.792;2022-08-25T09:38:27;22.70;85.50
30244;DHT22;61465;53.652;9.792;2022-08-25T09:40:58;22.80;85.70
30244;DHT22;61465;53.652;9.792;2022-08-25T09:46:15;22.90;85.60
30244;DHT22;61465;53.652;9.792;2022-08-25T09:48:55;23.00;85.00
30244;DHT22;61465;53.652;9.792;2022-08-25T09:51:32;23.10;85.40
30244;DHT22;61465;53.652;9.792;2022-08-25T09:54:15;23.20;85.40
30244;DHT22;61465;53.652;9.792;2022-08-25T09:56:52;23.30;86.50
30244;DHT22;61465;53.652;9.792;2022-08-25T09:59:33;23.60;86.80
30244;DHT22;61465;53.652;9.792;2022-08-25T10:02:23;23.90;87.00
30244;DHT22;61465;53.652;9.792;2022-08-25T10:04:47;24.00;86.70
30244;DHT22;61465;53.652;9.792;2022-08-25T10:07:30;24.20;87.40
30244;DHT22;61465;53.652;9.792;2022-08-25T10:10:02;24.40;86.90
30244;DHT22;61465;53.652;9.792;2022-08-25T10:12:40;24.50;86.70
30244;DHT22;61465;53.652;9.792;2022-08-25T10:15:29;24.70;86.80
30244;DHT22;61465;53.652;9.792;2022-08-25T10:17:55;24.90;87.40
30244;DHT22;61465;53.652;9.792;2022-08-25T10:20:24;25.10;87.10
30244;DHT22;61465;53.652;9.792;2022-08-25T10:22:51;25.30;87.60
30244;DHT22;61465;53.652;9.792;2022-08-25T10:25:24;25.30;86.50
30244;DHT22;61465;53.652;9.792;2022-08-25T10:28:11;25.40;86.40
30244;DHT22;61465;53.652;9.792;2022-08-25T10:30:56;25.40;86.60
30244;DHT22;61465;53.652;9.792;2022-08-25T10:33:29;25.30;86.60
30244;DHT22;61465;53.652;9.792;2022-08-25T10:36:13;25.40;86.60
30244;DHT22;61465;53.652;9.792;2022-08-25T10:39:00;25.50;86.40
30244;DHT22;61465;53.652;9.792;2022-08-25T10:41:57;25.40;86.40
30244;DHT22;61465;53.652;9.792;2022-08-25T10:44:48;25.40;86.00
30244;DHT22;61465;53.652;9.792;2022-08-25T10:54:00;25.40;85.20
30244;DHT22;61465;53.652;9.792;2022-08-25T10:56:37;25.40;85.20
30244;DHT22;61465;53.652;9.792;2022-08-25T11:04:44;25.50;85.00
30244;DHT22;61465;53.652;9.792;2022-08-25T11:07:26;25.50;85.10
30244;DHT22;61465;53.652;9.792;2022-08-25T11:09:56;25.60;84.80
30244;DHT22;61465;53.652;9.792;2022-08-25T11:12:33;25.70;84.80
30244;DHT22;61465;53.652;9.792;2022-08-25T11:15:18;25.90;85.00
30244;DHT22;61465;53.652;9.792;2022-08-25T11:18:25;26.00;85.00
30244;DHT22;61465;53.652;9.792;2022-08-25T11:20:58;26.00;84.60
30244;DHT22;61465;53.652;9.792;2022-08-25T11:23:37;26.20;84.10
30244;DHT22;61465;53.652;9.792;2022-08-25T11:26:10;26.30;84.10
30244;DHT22;61465;53.652;9.792;2022-08-25T11:28:51;26.30;83.80
30244;DHT22;61465;53.652;9.792;2022-08-25T11:31:19;26.40;83.60
30244;DHT22;61465;53.652;9.792;2022-08-25T11:33:45;26.30;82.70
30244;DHT22;61465;53.652;9.792;2022-08-25T11:36:29;26.30;82.80
30244;DHT22;61465;53.652;9.792;2022-08-25T11:39:30;26.40;82.90
30244;DHT22;61465;53.652;9.792;2022-08-25T11:50:29;26.70;82.40
30244;DHT22;61465;53.652;9.792;2022-08-25T11:55:46;26.70;81.60
30244;DHT22;61465;53.652;9.792;2022-08-25T12:01:02;26.60;81.10
30244;DHT22;61465;53.652;9.792;2022-08-25T12:06:24;26.60;80.80
30244;DHT22;61465;53.652;9.792;2022-08-25T12:27:10;26.70;80.10
30244;DHT22;61465;53.652;9.792;2022-08-25T12:29:45;26.70;79.50
30244;DHT22;61465;53.652;9.792;2022-08-25T12:37:28;26.70;79.90
30244;DHT22;61465;53.652;9.792;2022-08-25T12:39:59;26.70;79.40
30244;DHT22;61465;53.652;9.792;2022-08-25T12:42:37;26.80;79.50
30244;DHT22;61465;53.652;9.792;2022-08-25T12:47:40;26.90;79.30
30244;DHT22;61465;53.652;9.792;2022-08-25T12:50:35;26.90;78.70
30244;DHT22;61465;53.652;9.792;2022-08-25T12:53:37;26.90;78.90
30244;DHT22;61465;53.652;9.792;2022-08-25T12:56:06;27.00;79.20
30244;DHT22;61465;53.652;9.792;2022-08-25T12:59:34;27.10;78.30
30244;DHT22;61465;53.652;9.792;2022-08-25T13:04:44;27.10;78.50
30244;DHT22;61465;53.652;9.792;2022-08-25T13:15:15;27.20;77.80
30244;DHT22;61465;53.652;9.792;2022-08-25T13:17:49;27.20;77.30
30244;DHT22;61465;53.652;9.792;2022-08-25T13:22:49;27.40;77.10
30244;DHT22;61465;53.652;9.792;2022-08-25T13:25:20;27.50;77.20
30244;DHT22;61465;53.652;9.792;2022-08-25T13:27:55;27.40;76.80
30244;DHT22;61465;53.652;9.792;2022-08-25T13:30:28;27.40;76.10
30244;DHT22;61465;53.652;9.792;2022-08-25T13:32:54;27.40;75.90
30244;DHT22;61465;53.652;9.792;2022-08-25T13:35:25;27.50;76.10
30244;DHT22;61465;53.652;9.792;2022-08-25T13:37:50;27.50;75.60
30244;DHT22;61465;53.652;9.792;2022-08-25T13:40:28;27.50;75.40
30244;DHT22;61465;53.652;9.792;2022-08-25T13:43:03;27.50;75.90
30244;DHT22;61465;53.652;9.792;2022-08-25T13:45:31;27.60;75.70
30244;DHT22;61465;53.652;9.792;2022-08-25T13:48:01;27.70;75.70
30244;DHT22;61465;53.652;9.792;2022-08-25T13:50:29;27.80;75.40
30244;DHT22;61465;53.652;9.792;2022-08-25T13:55:37;27.70;74.50
30244;DHT22;61465;53.652;9.792;2022-08-25T13:58:04;27.70;74.80
30244;DHT22;61465;53.652;9.792;2022-08-25T14:00:37;27.70;74.30
30244;DHT22;61465;53.652;9.792;2022-08-25T14:03:05;27.70;74.10
30244;DHT22;61465;53.652;9.792;2022-08-25T14:05:40;27.80;74.20
30244;DHT22;61465;53.652;9.792;2022-08-25T14:08:25;27.80;74.70
30244;DHT22;61465;53.652;9.792;2022-08-25T14:11:06;27.80;73.90
30244;DHT22;61465;53.652;9.792;2022-08-25T14:13:33;27.80;74.20
30244;DHT22;61465;53.652;9.792;2022-08-25T14:16:14;27.80;73.70
30244;DHT22;61465;53.652;9.792;2022-08-25T14:18:49;27.80;74.00
30244;DHT22;61465;53.652;9.792;2022-08-25T14:21:15;27.80;73.60
30244;DHT22;61465;53.652;9.792;2022-08-25T14:23:41;27.80;73.10
30244;DHT22;61465;53.652;9.792;2022-08-25T14:26:07;27.80;74.90
30244;DHT22;61465;53.652;9.792;2022-08-25T14:28:33;27.80;72.80
30244;DHT22;61465;53.652;9.792;2022-08-25T14:31:01;27.80;72.60
30244;DHT22;61465;53.652;9.792;2022-08-25T14:33:41;27.80;72.60
30244;DHT22;61465;53.652;9.792;2022-08-25T14:36:08;27.70;72.40
30244;DHT22;61465;53.652;9.792;2022-08-25T14:38:35;27.80;72.20
30244;DHT22;61465;53.652;9.792;2022-08-25T14:41:03;27.70;71.90
30244;DHT22;61465;53.652;9.792;2022-08-25T14:43:29;27.80;72.00
30244;DHT22;61465;53.652;9.792;2022-08-25T14:45:55;27.80;71.90
30244;DHT22;61465;53.652;9.792;2022-08-25T14:48:31;27.80;71.70
30244;DHT22;61465;53.652;9.792;2022-08-25T14:50:58;27.90;72.10
30244;DHT22;61465;53.652;9.792;2022-08-25T14:53:24;27.90;73.30
30244;DHT22;61465;53.652;9.792;2022-08-25T14:55:51;27.90;71.80
30244;DHT22;61465;53.652;9.792;2022-08-25T14:58:22;27.90;71.50
30244;DHT22;61465;53.652;9.792;2022-08-25T15:00:49;27.90;71.40
30244;DHT22;61465;53.652;9.792;2022-08-25T15:03:37;27.90;71.20
30244;DHT22;61465;53.652;9.792;2022-08-25T15:06:03;28.00;71.90
30244;DHT22;61465;53.652;9.792;2022-08-25T15:08:30;27.90;72.70
30244;DHT22;61465;53.652;9.792;2022-08-25T15:11:15;28.00;71.20
30244;DHT22;61465;53.652;9.792;2022-08-25T15:13:41;28.00;71.00
30244;DHT22;61465;53.652;9.792;2022-08-25T15:16:27;28.00;71.20
30244;DHT22;61465;53.652;9.792;2022-08-25T15:18:54;27.90;70.60
30244;DHT22;61465;53.652;9.792;2022-08-25T15:21:20;27.90;70.40
30244;DHT22;61465;53.652;9.792;2022-08-25T15:23:45;27.90;70.40
30244;DHT22;61465;53.652;9.792;2022-08-25T15:26:12;27.80;70.10
30244;DHT22;61465;53.652;9.792;2022-08-25T15:28:45;27.80;70.00
30244;DHT22;61465;53.652;9.792;2022-08-25T15:31:13;27.70;69.90
30244;DHT22;61465;53.652;9.792;2022-08-25T15:33:40;27.80;70.00
30244;DHT22;61465;53.652;9.792;2022-08-25T15:36:12;27.80;69.80
30244;DHT22;61465;53.652;9.792;2022-08-25T15:38:38;27.80;69.80
30244;DHT22;61465;53.652;9.792;2022-08-25T15:41:06;27.80;69.50
30244;DHT22;61465;53.652;9.792;2022-08-25T15:43:33;27.80;69.30
30244;DHT22;61465;53.652;9.792;2022-08-25T15:45:59;27.70;69.00
30244;DHT22;61465;53.652;9.792;2022-08-25T15:48:24;27.80;69.20
30244;DHT22;61465;53.652;9.792;2022-08-25T15:50:54;27.70;69.20
30244;DHT22;61465;53.652;9.792;2022-08-25T15:53:20;27.70;69.40
30244;DHT22;61465;53.652;9.792;2022-08-25T15:55:46;27.70;69.10
30244;DHT22;61465;53.652;9.792;2022-08-25T15:58:12;27.70;70.20
30244;DHT22;61465;53.652;9.792;2022-08-25T16:00:38;27.70;69.20
30244;DHT22;61465;53.652;9.792;2022-08-25T16:03:03;27.70;69.00
30244;DHT22;61465;53.652;9.792;2022-08-25T16:05:29;27.60;69.00
30244;DHT22;61465;53.652;9.792;2022-08-25T16:07:54;27.60;68.90
30244;DHT22;61465;53.652;9.792;2022-08-25T16:10:20;27.60;68.60
30244;DHT22;61465;53.652;9.792;2022-08-25T16:12:45;27.60;68.70
30244;DHT22;61465;53.652;9.792;2022-08-25T16:15:11;27.60;68.70
30244;DHT22;61465;53.652;9.792;2022-08-25T16:17:38;27.60;68.80
30244;DHT22;61465;53.652;9.792;2022-08-25T16:20:04;27.60;68.50
30244;DHT22;61465;53.652;9.792;2022-08-25T16:22:29;27.60;68.30
30244;DHT22;61465;53.652;9.792;2022-08-25T16:24:55;27.60;68.40
30244;DHT22;61465;53.652;9.792;2022-08-25T16:27:21;27.60;68.30
30244;DHT22;61465;53.652;9.792;2022-08-25T16:29:46;27.60;68.20
30244;DHT22;61465;53.652;9.792;2022-08-25T16:32:13;27.60;68.10
30244;DHT22;61465;53.652;9.792;2022-08-25T16:34:38;27.60;68.10
30244;DHT22;61465;53.652;9.792;2022-08-25T16:37:05;27.60;68.00
30244;DHT22;61465;53.652;9.792;2022-08-25T16:39:30;27.60;67.90
30244;DHT22;61465;53.652;9.792;2022-08-25T16:41:56;27.60;68.00
30244;DHT22;61465;53.652;9.792;2022-08-25T16:44:22;27.60;67.80
30244;DHT22;61465;53.652;9.792;2022-08-25T16:46:49;27.60;67.70
30244;DHT22;61465;53.652;9.792;2022-08-25T16:49:18;27.60;67.70
30244;DHT22;61465;53.652;9.792;2022-08-25T16:51:44;27.50;67.50
30244;DHT22;61465;53.652;9.792;2022-08-25T16:54:10;27.50;67.40
30244;DHT22;61465;53.652;9.792;2022-08-25T16:56:55;27.50;67.30
30244;DHT22;61465;53.652;9.792;2022-08-25T16:59:22;27.50;67.40
30244;DHT22;61465;53.652;9.792;2022-08-25T17:01:48;27.40;67.10
30244;DHT22;61465;53.652;9.792;2022-08-25T17:04:15;27.40;67.90
30244;DHT22;61465;53.652;9.792;2022-08-25T17:06:42;27.40;67.30
30244;DHT22;61465;53.652;9.792;2022-08-25T17:09:10;27.30;67.20
30244;DHT22;61465;53.652;9.792;2022-08-25T17:11:46;27.30;67.20
30244;DHT22;61465;53.652;9.792;2022-08-25T17:14:17;27.30;67.30
30244;DHT22;61465;53.652;9.792;2022-08-25T17:16:44;27.30;67.10
30244;DHT22;61465;53.652;9.792;2022-08-25T17:19:12;27.30;67.00
30244;DHT22;61465;53.652;9.792;2022-08-25T17:21:41;27.20;66.90